Time;durP1;ratioP1;P1;durP2;ratioP2;P2;SDS_P1;SDS_P2;PMS_P1;PMS_P2;Temp;Humidity;BMP_temperature;BMP_pressure;BME280_temperature;BME280_humidity;BME280_pressure;Samples;Min_cycle;Max_cycle;Signal;HPM_P1;HPM_P2
2022/05/19 00:02:23;;;;;;;2.00;1.90;;;;;;;15.57;59.49;95668.50;5090868;28;20197;-81
2022/05/19 00:04:51;;;;;;;1.90;1.80;;;;;;;15.55;59.38;95678.16;5091328;28;20200;-77
2022/05/19 00:07:19;;;;;;;2.10;1.90;;;;;;;15.45;59.45;95667.06;5090736;28;20201;-79
2022/05/19 00:09:45;;;;;;;2.33;2.03;;;;;;;15.44;59.62;95661.13;5091324;28;20186;-81
2022/05/19 00:12:16;;;;;;;3.77;2.50;;;;;;;15.48;59.60;95675.34;5090873;28;20189;-80
2022/05/19 00:14:44;;;;;;;3.03;2.00;;;;;;;15.23;59.42;95640.72;5091788;28;20269;-80
2022/05/19 00:17:11;;;;;;;6.40;2.00;;;;;;;15.14;59.67;95623.56;5090623;28;20192;-79
2022/05/19 00:19:38;;;;;;;2.93;2.00;;;;;;;15.15;59.51;95632.91;5090712;28;20748;-78
2022/05/19 00:22:07;;;;;;;2.37;1.87;;;;;;;15.39;59.43;95665.09;5090916;28;20556;-79
2022/05/19 00:24:34;;;;;;;4.37;2.17;;;;;;;15.10;59.52;95624.78;5091139;28;20284;-79
2022/05/19 00:27:01;;;;;;;3.00;1.77;;;;;;;15.35;59.78;95679.22;5091006;28;20636;-78
2022/05/19 00:29:29;;;;;;;8.20;2.10;;;;;;;15.32;59.77;95675.94;5091615;28;20629;-77
2022/05/19 00:31:56;;;;;;;2.73;2.03;;;;;;;15.00;59.68;95629.19;5090814;28;20209;-80
2022/05/19 00:34:23;;;;;;;2.20;2.10;;;;;;;15.20;59.74;95669.38;5089481;28;20248;-78
2022/05/19 00:36:57;;;;;;;2.40;2.20;;;;;;;15.24;59.88;95680.19;5090418;28;20198;-78
2022/05/19 00:39:25;;;;;;;6.27;2.53;;;;;;;15.01;59.92;95653.97;5090701;28;20228;-79
2022/05/19 00:42:43;;;;;;;4.53;2.47;;;;;;;14.67;59.72;95605.56;5090722;28;20568;-79
2022/05/19 00:44:40;;;;;;;4.80;2.23;;;;;;;15.15;59.63;95689.59;5090584;28;20629;-79
2022/05/19 00:47:09;;;;;;;4.57;2.57;;;;;;;15.15;59.57;95693.94;5090896;28;20208;-78
2022/05/19 00:49:41;;;;;;;5.23;2.57;;;;;;;15.13;59.58;95688.13;5090155;28;20186;-79
2022/05/19 00:52:12;;;;;;;2.83;2.43;;;;;;;14.76;59.37;95638.19;5090430;28;20217;-79
2022/05/19 00:54:46;;;;;;;3.67;2.33;;;;;;;15.08;59.57;95701.44;5091391;28;20211;-80
2022/05/19 00:57:18;;;;;;;5.63;2.63;;;;;;;14.79;59.67;95653.38;5090225;28;20201;-81
2022/05/19 00:59:49;;;;;;;2.37;2.17;;;;;;;14.96;59.41;95685.31;5090339;28;20213;-79
2022/05/19 01:02:19;;;;;;;2.67;2.47;;;;;;;14.63;59.83;95640.25;5091134;28;20196;-81
2022/05/19 01:04:51;;;;;;;2.67;2.37;;;;;;;15.00;59.31;95696.97;5092203;28;20197;-79
2022/05/19 01:07:24;;;;;;;3.10;2.80;;;;;;;14.84;59.53;95680.47;5094855;28;20276;-79
2022/05/19 01:09:55;;;;;;;3.27;2.67;;;;;;;14.92;59.64;95696.03;5093812;28;20185;-80
2022/05/19 01:12:23;;;;;;;4.70;2.63;;;;;;;14.94;59.58;95709.56;5090190;28;20193;-80
2022/05/19 01:14:50;;;;;;;3.60;2.60;;;;;;;14.92;59.49;95712.31;5090409;28;20254;-78
2022/05/19 01:17:17;;;;;;;4.67;2.53;;;;;;;14.84;59.53;95704.44;5089356;28;20567;-81
2022/05/19 01:19:47;;;;;;;2.90;2.10;;;;;;;14.75;59.59;95693.22;5090825;28;20232;-80
2022/05/19 01:22:23;;;;;;;5.13;2.90;;;;;;;14.88;59.48;95713.53;5090091;28;20792;-80
2022/05/19 01:24:55;;;;;;;3.63;2.70;;;;;;;14.83;59.72;95708.00;5090488;28;20197;-80
2022/05/19 01:27:24;;;;;;;3.80;2.50;;;;;;;14.53;59.50;95665.22;5089990;28;20205;-80
2022/05/19 01:29:51;;;;;;;2.93;2.63;;;;;;;14.51;59.62;95659.41;5090137;28;20258;-79
2022/05/19 01:32:30;;;;;;;7.30;2.60;;;;;;;14.80;59.71;95710.84;5089678;28;20185;-80
2022/05/19 01:34:57;;;;;;;4.87;2.70;;;;;;;14.78;59.41;95713.56;5090130;28;20177;-79
2022/05/19 01:37:24;;;;;;;3.00;2.37;;;;;;;14.77;59.70;95711.13;5089734;28;20193;-80
2022/05/19 01:39:57;;;;;;;2.73;2.50;;;;;;;14.61;59.73;95685.13;5090568;28;20217;-80
2022/05/19 01:42:38;;;;;;;3.10;2.80;;;;;;;14.76;59.70;95714.63;5089550;28;20186;-81
2022/05/19 01:45:21;;;;;;;2.97;2.67;;;;;;;14.76;59.83;95717.19;5090145;28;20213;-81
2022/05/19 01:47:53;;;;;;;4.90;2.20;;;;;;;14.75;59.83;95710.44;5090642;28;20193;-81
2022/05/19 01:50:28;;;;;;;2.80;2.30;;;;;;;14.75;60.06;95721.53;5089904;28;20193;-80
2022/05/19 01:53:01;;;;;;;4.10;2.90;;;;;;;14.75;60.08;95723.31;5089937;28;20656;-80
2022/05/19 01:55:36;;;;;;;3.63;2.63;;;;;;;14.74;60.10;95725.06;5089250;28;20197;-79
2022/05/19 01:58:12;;;;;;;3.90;2.50;;;;;;;14.74;59.89;95727.66;5089699;28;20299;-80
2022/05/19 02:00:40;;;;;;;7.63;2.80;;;;;;;14.66;60.00;95719.81;5069371;28;20216;-80
2022/05/19 02:03:13;;;;;;;3.67;2.77;;;;;;;14.71;59.95;95729.69;5085190;28;20241;-80
2022/05/19 02:05:45;;;;;;;3.50;3.20;;;;;;;14.39;59.94;95673.34;5081511;28;20597;-79
2022/05/19 02:08:17;;;;;;;6.90;3.87;;;;;;;14.75;60.31;95731.84;5089976;28;20205;-81
2022/05/19 02:10:52;;;;;;;5.03;3.80;;;;;;;14.77;60.39;95731.72;5090003;28;20186;-79
2022/05/19 02:13:21;;;;;;;4.60;3.60;;;;;;;14.77;60.28;95732.53;5089608;28;20189;-79
2022/05/19 02:15:53;;;;;;;3.47;3.17;;;;;;;14.28;60.19;95648.53;5089670;28;20189;-80
2022/05/19 02:18:24;;;;;;;5.17;3.57;;;;;;;14.53;60.27;95690.97;5090278;28;20275;-79
2022/05/19 02:20:52;;;;;;;4.37;3.77;;;;;;;14.83;60.45;95735.50;5091548;28;20213;-79
2022/05/19 02:23:19;;;;;;;6.90;4.40;;;;;;;14.85;60.46;95731.00;5095523;28;20205;-80
2022/05/19 02:25:48;;;;;;;5.83;3.87;;;;;;;14.86;60.38;95730.09;5091504;28;20544;-80
2022/05/19 02:28:19;;;;;;;4.50;3.67;;;;;;;14.03;60.49;95604.44;5089499;28;20182;-80
2022/05/19 02:30:48;;;;;;;5.57;3.70;;;;;;;14.88;60.36;95734.13;5093709;28;20676;-80
2022/05/19 02:33:17;;;;;;;6.87;4.17;;;;;;;14.68;60.25;95702.47;5093603;28;20230;-80
2022/05/19 02:35:45;;;;;;;7.10;3.73;;;;;;;14.78;60.19;95723.03;5093135;28;20649;-80
2022/05/19 02:38:14;;;;;;;4.57;3.70;;;;;;;14.92;60.38;95738.06;5093194;28;20194;-81
2022/05/19 02:40:45;;;;;;;4.50;3.70;;;;;;;14.92;60.21;95732.91;5093189;28;20724;-81
2022/05/19 02:43:13;;;;;;;3.40;3.10;;;;;;;14.63;60.09;95684.03;5093419;28;20177;-79
2022/05/19 02:45:43;;;;;;;4.30;3.67;;;;;;;14.36;60.19;95642.72;5093996;28;20371;-80
2022/05/19 02:48:12;;;;;;;5.47;4.07;;;;;;;14.94;59.83;95733.59;5093427;28;20193;-80
2022/05/19 02:50:43;;;;;;;5.93;4.10;;;;;;;14.94;60.11;95740.50;5093539;28;20675;-80
2022/05/19 02:53:10;;;;;;;6.80;4.00;;;;;;;14.95;60.39;95739.56;5093467;28;20199;-81
2022/05/19 02:55:38;;;;;;;6.30;4.30;;;;;;;14.94;60.05;95735.34;5093130;28;20182;-80
2022/05/19 02:58:05;;;;;;;5.87;4.23;;;;;;;14.92;60.14;95744.97;5093384;28;20199;-81
2022/05/19 03:00:31;;;;;;;5.83;3.87;;;;;;;14.91;60.21;95741.59;5093600;28;20232;-80
2022/05/19 03:02:59;;;;;;;6.13;4.17;;;;;;;14.51;59.86;95680.00;5093675;28;20299;-81
2022/05/19 03:05:30;;;;;;;3.80;3.40;;;;;;;14.91;60.06;95738.22;5092786;28;20197;-81
2022/05/19 03:08:00;;;;;;;6.77;3.90;;;;;;;14.67;60.21;95707.75;5093024;28;20190;-81
2022/05/19 03:10:27;;;;;;;4.80;4.10;;;;;;;14.74;59.89;95719.94;5092746;28;20194;-80
2022/05/19 03:12:56;;;;;;;6.43;3.67;;;;;;;14.85;59.86;95747.28;5092554;28;20190;-81
2022/05/19 03:15:23;;;;;;;3.87;3.30;;;;;;;14.84;59.84;95737.94;5092881;28;20299;-81
2022/05/19 03:17:54;;;;;;;5.93;3.40;;;;;;;14.08;59.96;95629.75;5092736;28;20190;-79
2022/05/19 03:20:24;;;;;;;4.17;3.10;;;;;;;14.83;59.72;95738.09;5093250;28;20217;-79
2022/05/19 03:22:52;;;;;;;3.50;2.77;;;;;;;14.81;59.74;95743.38;5093457;28;20193;-81
2022/05/19 03:25:20;;;;;;;4.00;3.07;;;;;;;14.80;59.60;95747.69;5093064;28;20189;-80
2022/05/19 03:27:47;;;;;;;6.07;3.00;;;;;;;14.79;59.67;95747.84;5093312;28;20200;-82
2022/05/19 03:30:16;;;;;;;3.20;2.80;;;;;;;14.78;59.35;95753.94;5092835;28;20193;-81
2022/05/19 03:32:45;;;;;;;3.30;2.50;;;;;;;14.10;59.28;95651.00;5093216;28;20235;-81
2022/05/19 03:35:18;;;;;;;4.60;2.43;;;;;;;14.77;59.39;95755.72;5100175;28;20197;-79
2022/05/19 03:37:46;;;;;;;2.80;2.60;;;;;;;14.65;59.34;95743.13;5101148;28;20213;-79
2022/05/19 03:40:17;;;;;;;2.93;2.60;;;;;;;14.78;59.04;95764.25;5097260;28;20228;-77
2022/05/19 03:42:44;;;;;;;4.70;2.87;;;;;;;14.61;59.09;95741.78;5092583;28;20611;-79
2022/05/19 03:45:11;;;;;;;3.37;2.97;;;;;;;14.62;58.78;95738.25;5092430;28;20684;-78
2022/05/19 03:47:38;;;;;;;2.93;2.60;;;;;;;14.86;58.86;95779.84;5091819;28;20189;-80
2022/05/19 03:50:06;;;;;;;3.80;2.77;;;;;;;14.69;58.88;95754.78;5092577;28;20653;-81
2022/05/19 03:52:37;;;;;;;4.47;2.53;;;;;;;14.92;58.79;95783.63;5072044;28;20201;-80
2022/05/19 03:55:04;;;;;;;3.37;2.53;;;;;;;14.94;58.85;95779.97;5072506;28;20207;-81
2022/05/19 03:57:32;;;;;;;2.60;2.40;;;;;;;14.70;58.76;95754.63;5084261;28;20186;-81
2022/05/19 04:00:00;;;;;;;6.17;2.60;;;;;;;14.77;58.77;95765.22;5092492;28;20221;-81
2022/05/19 04:02:26;;;;;;;2.53;2.23;;;;;;;13.87;58.60;95614.44;5092085;28;20242;-80
2022/05/19 04:04:53;;;;;;;4.20;2.77;;;;;;;15.03;58.37;95798.94;5091621;28;20190;-79
2022/05/19 04:07:20;;;;;;;2.90;2.70;;;;;;;14.82;58.58;95759.66;5091732;28;20229;-80
2022/05/19 04:09:47;;;;;;;7.77;2.40;;;;;;;15.17;58.38;95802.84;5091959;28;20274;-81
2022/05/19 04:12:14;;;;;;;2.93;2.63;;;;;;;15.24;58.22;95804.72;5092026;28;20189;-80
2022/05/19 04:14:43;;;;;;;4.50;2.90;;;;;;;15.12;58.01;95781.84;5092707;28;20185;-80
2022/05/19 04:17:10;;;;;;;5.03;3.50;;;;;;;15.12;57.63;95758.66;5093628;28;20201;-80
2022/05/19 04:19:37;;;;;;;5.13;3.00;;;;;;;15.47;57.68;95800.06;5099630;28;20190;-81
2022/05/19 04:22:04;;;;;;;8.27;3.30;;;;;;;15.49;57.65;95795.56;5091837;28;20280;-79
2022/05/19 04:24:34;;;;;;;7.27;3.43;;;;;;;15.56;57.29;95788.09;5092555;28;20194;-81
2022/05/19 04:27:03;;;;;;;6.67;3.60;;;;;;;15.05;57.21;95696.53;5095878;28;20225;-83
2022/05/19 04:29:30;;;;;;;4.57;3.77;;;;;;;15.90;56.94;95808.22;5095841;28;20218;-79
2022/05/19 04:31:58;;;;;;;7.20;3.90;;;;;;;15.95;56.96;95800.84;5097643;28;20178;-82
2022/05/19 04:34:25;;;;;;;7.33;4.20;;;;;;;16.12;56.76;95810.41;5095023;28;20221;-80
2022/05/19 04:36:52;;;;;;;4.97;4.27;;;;;;;16.26;56.78;95815.06;5092569;28;20198;-80
2022/05/19 04:39:19;;;;;;;7.43;4.13;;;;;;;16.37;56.79;95818.41;5092371;28;20181;-81
2022/05/19 04:41:46;;;;;;;6.67;4.10;;;;;;;16.42;56.68;95813.63;5091003;28;20217;-81
2022/05/19 04:44:13;;;;;;;4.50;4.10;;;;;;;16.21;56.62;95770.00;5094857;28;20193;-79
2022/05/19 04:46:40;;;;;;;6.17;4.17;;;;;;;16.29;56.53;95775.25;5094335;28;20205;-81
2022/05/19 04:49:08;;;;;;;5.60;4.70;;;;;;;16.66;56.44;95818.19;5093208;28;20205;-80
2022/05/19 04:51:35;;;;;;;7.97;4.70;;;;;;;16.75;56.29;95825.09;5090162;28;20649;-78
2022/05/19 04:54:02;;;;;;;7.50;5.27;;;;;;;16.77;56.21;95803.34;5094698;28;20182;-81
2022/05/19 04:56:30;;;;;;;7.83;5.57;;;;;;;16.80;56.25;95805.63;5096661;28;20193;-76
2022/05/19 04:58:57;;;;;;;7.13;4.83;;;;;;;16.83;56.17;95793.34;5102697;28;20193;-79
2022/05/19 05:01:24;;;;;;;7.80;4.20;;;;;;;17.04;56.27;95805.00;5099768;28;20209;-79
2022/05/19 05:03:50;;;;;;;5.37;4.40;;;;;;;17.39;57.63;95823.97;5097578;28;20193;-80
2022/05/19 05:06:19;;;;;;;7.60;4.17;;;;;;;17.53;59.13;95794.19;5093831;28;20182;-79
2022/05/19 05:08:46;;;;;;;7.17;4.03;;;;;;;18.20;60.25;95838.34;5094245;28;20192;-78
2022/05/19 05:11:13;;;;;;;4.80;3.90;;;;;;;18.73;60.77;95835.41;5097887;28;20186;-78
2022/05/19 05:13:40;;;;;;;3.70;3.13;;;;;;;19.37;60.62;95834.78;5092107;28;20186;-79
2022/05/19 05:16:07;;;;;;;7.40;4.13;;;;;;;20.05;59.76;95832.56;5091183;28;20656;-78
2022/05/19 05:18:36;;;;;;;4.17;3.20;;;;;;;20.82;58.70;95839.66;5094254;28;20629;-82
2022/05/19 05:21:11;;;;;;;4.63;2.80;;;;;;;21.62;57.31;95847.00;5095499;28;20228;-79
2022/05/19 05:23:40;;;;;;;4.60;3.33;;;;;;;22.38;55.75;95829.41;5094264;28;20228;-86
2022/05/19 05:26:08;;;;;;;3.03;2.65;;;;;;;23.34;53.66;95842.19;5090096;28;20193;-85
2022/05/19 05:28:36;;;;;;;4.50;2.70;;;;;;;24.19;51.98;95843.78;5091385;28;20662;-86
2022/05/19 05:31:03;;;;;;;4.18;2.90;;;;;;;24.85;49.75;95817.06;5091694;28;20193;-85
2022/05/19 05:33:30;;;;;;;3.67;2.50;;;;;;;25.87;48.26;95840.28;5090654;28;20657;-84
2022/05/19 05:35:58;;;;;;;3.00;2.80;;;;;;;26.50;46.14;95810.81;5091055;28;20182;-85
2022/05/19 05:38:25;;;;;;;3.85;2.42;;;;;;;26.65;44.66;95719.50;5090206;28;20197;-84
2022/05/19 05:40:53;;;;;;;6.05;2.30;;;;;;;28.05;42.54;95813.66;5090861;28;20233;-84
2022/05/19 05:43:21;;;;;;;5.55;2.47;;;;;;;29.06;41.12;95858.78;5090799;28;20626;-86
2022/05/19 05:45:50;;;;;;;3.20;2.20;;;;;;;29.57;39.80;95831.88;5091650;28;20185;-83
2022/05/19 05:48:18;;;;;;;7.28;2.38;;;;;;;30.47;38.55;95863.09;5091364;28;20712;-81
2022/05/19 05:50:45;;;;;;;2.13;1.90;;;;;;;29.78;37.39;95659.06;5090993;28;20664;-86
2022/05/19 05:53:12;;;;;;;3.80;2.15;;;;;;;31.68;35.77;95859.44;5090985;28;20190;-82
2022/05/19 05:55:40;;;;;;;3.20;2.38;;;;;;;32.00;35.42;95832.41;5091103;28;20194;-79
2022/05/19 05:58:10;;;;;;;3.97;2.28;;;;;;;32.35;34.55;95810.88;5091527;28;20290;-83
2022/05/19 06:00:38;;;;;;;3.03;2.13;;;;;;;33.25;33.88;95865.09;5092210;28;20225;-80
2022/05/19 06:03:05;;;;;;;4.70;2.63;;;;;;;33.76;32.84;95870.00;5093028;28;20243;-84
2022/05/19 06:05:32;;;;;;;5.35;2.40;;;;;;;34.01;32.35;95829.59;5098492;28;20198;-81
2022/05/19 06:07:59;;;;;;;2.63;2.42;;;;;;;34.57;31.61;95843.91;5098276;28;20190;-84
2022/05/19 06:10:26;;;;;;;2.70;2.42;;;;;;;34.90;30.94;95836.56;5091458;28;20206;-83
2022/05/19 06:12:56;;;;;;;3.65;2.53;;;;;;;34.81;30.45;95767.16;5089872;28;20201;-87
2022/05/19 06:15:25;;;;;;;5.75;2.63;;;;;;;35.92;29.84;95876.50;5085294;28;20193;-80
2022/05/19 06:17:53;;;;;;;8.02;3.13;;;;;;;36.27;29.55;95873.00;5089116;28;20288;-79
2022/05/19 06:20:21;;;;;;;4.80;2.88;;;;;;;36.61;29.10;95867.81;5089779;28;20185;-80
2022/05/19 06:22:49;;;;;;;6.03;2.80;;;;;;;36.91;28.51;95880.19;5093640;28;21005;-83
2022/05/19 06:25:24;;;;;;;3.30;2.58;;;;;;;37.02;28.28;95851.63;5106945;28;20186;-82
2022/05/19 06:27:52;;;;;;;2.97;2.53;;;;;;;37.51;27.57;95888.09;5088136;28;20193;-82
2022/05/19 06:30:20;;;;;;;2.47;2.17;;;;;;;37.75;27.14;95877.50;5083596;28;20199;-80
2022/05/19 06:32:49;;;;;;;5.38;2.10;;;;;;;38.03;27.18;95880.44;5082143;28;20735;-80
2022/05/19 06:35:23;;;;;;;7.00;2.60;;;;;;;38.27;26.54;95877.78;5090393;28;20197;-80
2022/05/19 06:37:50;;;;;;;2.35;2.15;;;;;;;38.40;26.18;95859.22;5091278;28;20193;-84
2022/05/19 06:40:17;;;;;;;2.63;2.20;;;;;;;38.74;25.87;95882.31;5091723;28;20196;-84
2022/05/19 06:42:46;;;;;;;5.57;2.55;;;;;;;38.53;25.67;95811.47;5089780;28;20190;-82
2022/05/19 06:45:14;;;;;;;2.95;2.00;;;;;;;38.67;25.86;95808.88;5092449;28;20279;-81
2022/05/19 06:47:41;;;;;;;7.80;2.35;;;;;;;39.35;25.31;95888.72;5091914;28;20197;-82
2022/05/19 06:50:11;;;;;;;3.40;2.10;;;;;;;39.53;24.80;95890.56;5089036;28;20564;-83
2022/05/19 06:52:44;;;;;;;6.30;2.20;;;;;;;39.71;25.19;95886.28;5085985;28;20232;-80
2022/05/19 06:55:12;;;;;;;2.83;2.10;;;;;;;39.89;24.69;95889.97;5090528;28;20193;-82
2022/05/19 06:57:39;;;;;;;5.22;2.15;;;;;;;39.97;24.20;95880.47;5089453;28;20201;-81
2022/05/19 07:00:11;;;;;;;2.65;2.10;;;;;;;40.02;24.19;95875.00;5091698;28;20582;-84
2022/05/19 07:02:42;;;;;;;2.45;2.20;;;;;;;40.26;24.33;95891.75;5088019;28;20210;-82
2022/05/19 07:05:11;;;;;;;2.53;2.13;;;;;;;40.26;23.93;95877.56;5089712;28;20205;-81
2022/05/19 07:07:39;;;;;;;5.03;2.35;;;;;;;40.48;23.80;95895.63;5090799;28;20622;-81
2022/05/19 07:10:09;;;;;;;3.03;2.40;;;;;;;40.56;23.61;95887.69;5090029;28;20691;-82
2022/05/19 07:12:37;;;;;;;5.78;2.63;;;;;;;40.66;23.26;95893.94;5086502;28;20376;-80
2022/05/19 07:15:05;;;;;;;7.80;2.42;;;;;;;40.73;23.02;95897.03;5087632;28;20581;-82
2022/05/19 07:17:32;;;;;;;3.53;2.50;;;;;;;40.79;23.02;95891.22;5089163;28;20190;-81
2022/05/19 07:22:44;;;;;;;3.20;2.20;;;;;;;40.90;22.80;95893.72;5091331;28;20227;-85
2022/05/19 07:25:11;;;;;;;3.55;2.00;;;;;;;40.93;22.10;95893.88;5091265;28;20243;-82
2022/05/19 07:27:38;;;;;;;2.00;1.90;;;;;;;40.96;22.61;95895.19;5095403;28;20224;-81
2022/05/19 07:30:07;;;;;;;5.10;2.15;;;;;;;40.86;22.37;95872.03;5100890;28;20204;-81
2022/05/19 07:32:34;;;;;;;3.78;2.22;;;;;;;40.99;22.15;95887.34;5096709;28;20221;-82
2022/05/19 07:35:01;;;;;;;4.55;2.00;;;;;;;41.01;21.81;95887.03;5088321;28;20197;-82
2022/05/19 07:37:28;;;;;;;2.22;1.95;;;;;;;41.02;21.82;95891.28;5090160;28;20194;-81
2022/05/19 07:39:56;;;;;;;4.47;1.90;;;;;;;40.64;21.69;95818.34;5087208;28;20193;-82
2022/05/19 07:42:24;;;;;;;3.08;1.70;;;;;;;41.01;21.65;95881.66;5090799;28;20213;-81
2022/05/19 07:44:52;;;;;;;2.05;1.60;;;;;;;41.00;21.26;95880.06;5087431;28;20653;-80
2022/05/19 07:47:19;;;;;;;3.08;1.50;;;;;;;40.98;21.53;95883.06;5091011;28;20189;-82
2022/05/19 07:49:46;;;;;;;4.70;2.17;;;;;;;40.90;21.12;95885.66;5090422;28;20214;-81
2022/05/19 07:52:13;;;;;;;3.22;1.90;;;;;;;40.70;20.96;95860.84;5089663;28;20196;-81
2022/05/19 07:54:41;;;;;;;4.63;1.63;;;;;;;40.35;21.12;95827.50;5088358;28;20748;-80
2022/05/19 07:57:09;;;;;;;2.45;2.08;;;;;;;40.43;21.18;95856.28;5089669;28;20189;-82
2022/05/19 07:59:36;;;;;;;4.05;1.60;;;;;;;40.57;20.65;95883.13;5087475;28;20185;-82
2022/05/19 08:02:05;;;;;;;1.70;1.50;;;;;;;40.29;20.58;95869.72;5089331;28;20680;-81
2022/05/19 08:04:31;;;;;;;3.55;1.80;;;;;;;40.37;21.00;95890.47;5087953;28;20208;-81
2022/05/19 08:06:59;;;;;;;2.10;1.90;;;;;;;40.26;20.74;95889.06;5089512;28;20192;-84
2022/05/19 08:12:18;;;;;;;1.73;1.63;;;;;;;39.94;20.75;95870.34;5091816;28;20196;-79
2022/05/19 08:17:29;;;;;;;4.25;1.88;;;;;;;39.78;20.98;95878.66;5091809;28;20258;-81
2022/05/19 08:19:56;;;;;;;2.78;1.70;;;;;;;39.40;21.26;95837.78;5087906;28;20603;-82
2022/05/19 08:22:23;;;;;;;3.40;2.10;;;;;;;39.54;21.01;95886.00;5089857;28;20580;-81
2022/05/19 08:24:50;;;;;;;2.60;1.98;;;;;;;39.39;21.32;95871.78;5090196;28;20189;-83
2022/05/19 08:27:19;;;;;;;2.00;1.80;;;;;;;39.24;21.15;95879.25;5086975;28;20324;-81
2022/05/19 08:29:45;;;;;;;4.95;2.05;;;;;;;39.05;21.22;95873.91;5089336;28;20201;-82
2022/05/19 08:32:13;;;;;;;3.97;1.50;;;;;;;38.87;20.84;95867.47;5089443;28;20194;-81
2022/05/19 08:34:39;;;;;;;1.67;1.50;;;;;;;38.71;21.02;95876.75;5089947;28;20190;-83
2022/05/19 08:37:07;;;;;;;1.73;1.63;;;;;;;38.55;20.98;95871.56;5090087;28;20196;-81
2022/05/19 08:39:34;;;;;;;2.17;1.60;;;;;;;38.38;21.17;95866.69;5088345;28;20290;-80
2022/05/19 08:42:04;;;;;;;4.97;2.33;;;;;;;38.11;21.08;95858.44;5089350;28;20295;-79
2022/05/19 08:44:36;;;;;;;1.70;1.50;;;;;;;37.74;21.22;95830.50;5086293;28;20178;-80
2022/05/19 08:47:07;;;;;;;2.70;1.90;;;;;;;37.66;20.88;95839.91;5089782;28;20200;-83
2022/05/19 08:49:39;;;;;;;3.95;1.70;;;;;;;37.69;20.66;95870.59;5088795;28;20225;-82
2022/05/19 08:52:09;;;;;;;4.18;1.65;;;;;;;37.50;21.03;95867.81;5088440;28;20193;-81
2022/05/19 08:54:38;;;;;;;3.03;1.52;;;;;;;37.22;20.71;95842.69;5089521;28;20193;-79
2022/05/19 08:57:10;;;;;;;1.50;1.40;;;;;;;37.13;20.78;95860.34;5088379;28;20189;-82
2022/05/19 08:59:52;;;;;;;1.92;1.83;;;;;;;36.89;21.25;95857.53;5085663;28;20727;-77
2022/05/19 09:02:26;;;;;;;2.97;1.60;;;;;;;36.65;21.57;95850.19;5081608;28;20221;-78
2022/05/19 09:05:06;;;;;;;3.75;1.50;;;;;;;36.34;21.65;95840.72;5084009;28;20189;-84
2022/05/19 09:07:57;;;;;;;2.65;1.40;;;;;;;36.26;21.02;95851.94;5084047;28;20206;-79
2022/05/19 09:11:03;;;;;;;4.85;1.60;;;;;;;35.91;21.27;95832.31;5085317;28;20189;-81
2022/05/19 09:13:36;;;;;;;2.60;1.42;;;;;;;35.66;21.18;95830.50;5024077;28;20195;-82
2022/05/19 09:16:12;;;;;;;3.47;1.27;;;;;;;35.56;21.59;95844.63;5024321;28;20191;-82
2022/05/19 09:18:44;;;;;;;1.30;1.20;;;;;;;35.36;21.43;95832.06;5023298;28;20203;-78
2022/05/19 09:21:11;;;;;;;4.22;1.50;;;;;;;35.17;21.88;95833.69;5024704;28;20202;-81
2022/05/19 09:23:40;;;;;;;3.50;1.45;;;;;;;34.99;21.73;95828.91;5027408;28;20195;-79
2022/05/19 09:26:34;;;;;;;2.00;1.60;;;;;;;34.70;21.89;95813.38;5026625;28;20231;-80
2022/05/19 09:29:07;;;;;;;4.05;1.55;;;;;;;34.39;21.42;95802.66;4959475;28;20202;-80
2022/05/19 09:31:38;;;;;;;1.50;1.23;;;;;;;34.34;21.99;95812.47;4961205;28;20206;-86
2022/05/19 09:34:07;;;;;;;1.50;1.40;;;;;;;34.02;22.09;95802.75;4961673;28;20221;-82
2022/05/19 09:36:38;;;;;;;1.90;1.30;;;;;;;33.95;22.35;95820.78;4959479;28;20195;-84
2022/05/19 09:39:09;;;;;;;3.13;1.33;;;;;;;33.49;22.54;95778.03;4961112;28;20270;-81
2022/05/19 09:41:39;;;;;;;2.08;1.50;;;;;;;33.31;22.33;95778.41;4964499;28;20689;-80
2022/05/19 09:44:11;;;;;;;1.30;1.20;;;;;;;33.37;22.60;95817.16;4966637;28;20193;-83
2022/05/19 09:46:43;;;;;;;2.28;1.50;;;;;;;33.15;22.83;95812.75;4964075;28;20280;-81
2022/05/19 09:49:25;;;;;;;1.40;1.30;;;;;;;32.89;23.09;95808.25;4970364;28;20704;-80
2022/05/19 09:51:52;;;;;;;1.60;1.50;;;;;;;32.75;22.72;95807.88;5009116;28;20290;-79
2022/05/19 09:54:20;;;;;;;1.45;1.35;;;;;;;32.56;23.17;95815.38;5010558;28;20200;-80
2022/05/19 09:56:50;;;;;;;3.03;1.45;;;;;;;32.32;23.07;95806.06;5010368;28;20191;-79
2022/05/19 09:59:20;;;;;;;1.67;1.58;;;;;;;32.11;23.10;95797.06;5010544;28;20196;-79
2022/05/19 10:01:51;;;;;;;2.00;1.40;;;;;;;31.29;23.58;95692.00;5010252;28;20228;-79
2022/05/19 10:04:25;;;;;;;2.47;1.40;;;;;;;31.35;23.33;95718.28;5010407;28;20200;-79
2022/05/19 10:06:54;;;;;;;1.98;1.60;;;;;;;31.64;23.59;95792.19;5075805;28;20204;-78
2022/05/19 10:09:24;;;;;;;2.67;1.55;;;;;;;31.46;23.45;95790.63;5092461;28;20364;-81
2022/05/19 10:11:54;;;;;;;2.28;1.60;;;;;;;31.28;23.99;95790.84;5091045;28;20182;-78
2022/05/19 10:14:28;;;;;;;2.40;1.45;;;;;;;31.11;23.83;95791.63;5090486;28;20198;-79
2022/05/19 10:17:13;;;;;;;2.70;1.52;;;;;;;30.89;23.66;95774.91;5092314;28;20291;-77
2022/05/19 10:19:52;;;;;;;2.45;1.50;;;;;;;30.80;24.39;95784.25;5092239;28;20189;-79
2022/05/19 10:22:51;;;;;;;3.17;1.50;;;;;;;30.61;24.12;95773.84;5085307;28;20209;-82
2022/05/19 10:25:33;;;;;;;3.90;1.80;;;;;;;30.48;24.21;95771.50;5047057;28;20222;-78
2022/05/19 10:31:08;;;;;;;1.60;1.50;;;;;;;30.21;24.55;95764.13;5046135;28;20643;-80
2022/05/19 10:33:53;;;;;;;1.58;1.48;;;;;;;30.09;24.71;95760.69;5045815;28;20314;-82
2022/05/19 10:36:26;;;;;;;1.60;1.50;;;;;;;29.97;24.60;95760.75;5047661;28;20597;-79
2022/05/19 10:39:12;;;;;;;4.82;1.60;;;;;;;29.76;24.93;95735.00;5047856;28;20198;-81
2022/05/19 10:41:56;;;;;;;2.85;1.83;;;;;;;29.77;25.11;95754.25;5045727;28;20563;-80
2022/05/19 10:45:03;;;;;;;2.20;1.65;;;;;;;29.67;24.95;95754.84;5045830;28;20329;-78
2022/05/19 10:47:41;;;;;;;3.17;1.92;;;;;;;29.37;25.49;95718.06;4992818;28;20192;-82
2022/05/19 10:50:19;;;;;;;3.63;2.00;;;;;;;29.46;25.26;95741.19;4991185;28;20185;-82
2022/05/19 10:53:06;;;;;;;3.38;1.67;;;;;;;29.01;25.29;95677.72;4990946;28;20207;-79
2022/05/19 10:55:42;;;;;;;3.28;1.67;;;;;;;29.29;25.72;95731.56;4993125;28;20203;-82
2022/05/19 10:58:22;;;;;;;2.00;1.85;;;;;;;29.21;25.52;95736.16;4994585;28;20188;-78
2022/05/19 11:01:04;;;;;;;4.18;2.15;;;;;;;29.13;25.75;95736.47;4997014;28;20199;-80
2022/05/19 11:04:03;;;;;;;3.25;1.65;;;;;;;29.05;25.45;95733.38;5050915;28;20257;-80
2022/05/19 11:07:10;;;;;;;2.30;1.73;;;;;;;28.95;25.51;95731.28;5054647;28;20195;-82
2022/05/19 11:09:46;;;;;;;2.70;1.70;;;;;;;28.77;25.79;95716.38;4979270;28;20202;-82
2022/05/19 11:12:20;;;;;;;4.50;1.90;;;;;;;28.76;25.29;95727.94;4973610;28;20212;-80
2022/05/19 11:14:58;;;;;;;1.65;1.42;;;;;;;27.73;25.55;95573.78;4966187;28;20280;-86
2022/05/19 11:17:34;;;;;;;1.70;1.60;;;;;;;28.61;25.58;95717.03;4970188;28;20280;-82
2022/05/19 11:20:07;;;;;;;2.42;1.83;;;;;;;28.15;25.93;95652.69;4969965;28;20838;-80
2022/05/19 11:22:39;;;;;;;2.65;1.90;;;;;;;28.51;26.06;95722.84;4970174;28;20665;-80
2022/05/19 11:27:59;;;;;;;4.53;1.80;;;;;;;28.39;25.92;95707.00;5027397;28;20198;-81
2022/05/19 11:30:33;;;;;;;2.20;1.83;;;;;;;27.77;26.39;95610.94;5026331;28;20343;-79
2022/05/19 11:33:05;;;;;;;1.35;1.35;;;;;;;28.30;25.96;95697.00;5027594;28;20245;-80
2022/05/19 11:35:38;;;;;;;2.55;1.50;;;;;;;27.87;26.21;95643.56;5027409;28;20348;-80
2022/05/19 11:38:16;;;;;;;2.38;1.70;;;;;;;28.10;26.07;95684.91;5026941;28;20698;-83
2022/05/19 11:40:48;;;;;;;6.75;1.77;;;;;;;28.12;26.60;95696.03;5024181;28;20196;-81
2022/05/19 11:43:20;;;;;;;3.38;1.70;;;;;;;27.69;26.12;95638.31;5028795;28;20216;-82
2022/05/19 11:45:58;;;;;;;2.00;1.83;;;;;;;27.97;25.96;95683.25;5077108;28;20688;-84
2022/05/19 11:57:16;;;;;;;1.67;1.52;;;;;;;27.23;26.69;95597.59;5088363;28;20251;-82
2022/05/19 11:59:50;;;;;;;1.80;1.70;;;;;;;27.36;26.70;95623.72;5086614;28;20189;-82
2022/05/19 12:02:22;;;;;;;2.67;1.70;;;;;;;27.41;26.86;95637.00;5088728;28;20757;-84
2022/05/19 12:04:52;;;;;;;1.80;1.70;;;;;;;27.31;26.79;95620.16;5090979;28;20618;-81
2022/05/19 12:07:33;;;;;;;3.08;1.80;;;;;;;27.29;26.87;95627.44;5086272;28;20225;-84
2022/05/19 12:10:01;;;;;;;1.90;1.80;;;;;;;27.37;26.95;95648.97;5085938;28;20190;-83
2022/05/19 12:12:32;;;;;;;2.22;1.48;;;;;;;26.91;26.53;95581.16;5090566;28;20194;-83
2022/05/19 12:15:17;;;;;;;2.15;1.80;;;;;;;26.86;26.94;95584.44;5090310;28;20194;-82